Time;durP1;ratioP1;P1;durP2;ratioP2;P2;SDS_P1;SDS_P2;PMS_P1;PMS_P2;Temp;Humidity;BMP_temperature;BMP_pressure;BME280_temperature;BME280_humidity;BME280_pressure;Samples;Min_cycle;Max_cycle;Signal;HPM_P1;HPM_P2
2022/11/28 00:15:21;;;;;;;6.47;4.23;;;;;;;;;;4857112;29;20826;-91
2022/11/28 00:17:47;;;;;;;6.03;5.47;;;;;;;;;;4838683;29;20533;-91
2022/11/28 00:20:13;;;;;;;5.15;4.90;;;;;;;;;;4843817;29;20513;-94
2022/11/28 00:22:40;;;;;;;5.23;4.83;;;;;;;;;;4844227;29;20194;-92
2022/11/28 00:25:06;;;;;;;4.97;4.63;;;;;;;;;;4846608;29;20431;-92
2022/11/28 00:27:33;;;;;;;4.47;4.17;;;;;;;;;;4845300;29;20435;-91
2022/11/28 00:29:59;;;;;;;5.57;5.07;;;;;;;;;;4853344;29;21032;-93
2022/11/28 00:32:26;;;;;;;8.30;5.53;;;;;;;;;;4880091;29;21003;-94
2022/11/28 00:34:52;;;;;;;5.30;4.80;;;;;;;;;;4869407;29;20434;-93
2022/11/28 00:37:18;;;;;;;4.90;4.60;;;;;;;;;;4880951;29;20432;-93
2022/11/28 00:39:44;;;;;;;5.90;5.40;;;;;;;;;;4887471;29;20453;-92
2022/11/28 00:42:10;;;;;;;6.37;5.77;;;;;;;;;;4858039;29;20891;-92
2022/11/28 00:44:36;;;;;;;2.27;2.17;;;;;;;;;;4874635;29;20437;-94
2022/11/28 00:47:02;;;;;;;4.70;4.30;;;;;;;;;;4878377;29;20430;-93
2022/11/28 00:49:28;;;;;;;3.93;3.63;;;;;;;;;;4871298;29;20461;-92
2022/11/28 00:51:54;;;;;;;4.83;4.40;;;;;;;;;;4888636;29;20417;-93
2022/11/28 00:54:20;;;;;;;2.63;2.53;;;;;;;;;;4896520;29;20474;-93
2022/11/28 00:56:46;;;;;;;3.60;3.40;;;;;;;;;;4897946;29;20434;-93
2022/11/28 00:59:12;;;;;;;4.70;4.20;;;;;;;;;;4900606;29;20473;-92
2022/11/28 01:01:41;;;;;;;4.93;4.63;;;;;;;;;;4900165;29;20734;-94
2022/11/28 01:04:08;;;;;;;5.20;2.20;;;;;;;;;;4904451;29;20471;-94
2022/11/28 01:06:36;;;;;;;4.73;4.33;;;;;;;;;;4880909;29;20437;-91
2022/11/28 01:09:04;;;;;;;5.80;5.30;;;;;;;;;;4873330;29;20461;-92
2022/11/28 01:11:30;;;;;;;6.50;5.57;;;;;;;;;;4876124;29;20537;-93
2022/11/28 01:14:00;;;;;;;8.32;4.97;;;;;;;;;;4884171;29;20469;-92
2022/11/28 01:16:27;;;;;;;6.07;5.43;;;;;;;;;;4877366;29;20189;-93
2022/11/28 01:18:53;;;;;;;5.20;4.80;;;;;;;;;;4873306;29;20198;-94
2022/11/28 01:21:20;;;;;;;4.30;4.03;;;;;;;;;;4857798;29;20582;-92
2022/11/28 01:23:47;;;;;;;4.40;4.20;;;;;;;;;;4858887;29;20456;-93
2022/11/28 01:26:17;;;;;;;5.23;5.03;;;;;;;;;;4878536;29;20418;-94
2022/11/28 01:28:43;;;;;;;4.03;3.83;;;;;;;;;;4882035;29;20449;-92
2022/11/28 01:31:11;;;;;;;5.77;4.57;;;;;;;;;;4887886;29;20460;-94
2022/11/28 01:33:37;;;;;;;5.03;4.63;;;;;;;;;;4880412;29;20465;-93
2022/11/28 01:36:04;;;;;;;4.17;3.90;;;;;;;;;;4860131;29;20563;-93
2022/11/28 01:38:30;;;;;;;4.83;4.60;;;;;;;;;;4873270;29;20458;-94
2022/11/28 01:40:58;;;;;;;4.70;4.43;;;;;;;;;;4878641;29;21062;-95
2022/11/28 01:43:24;;;;;;;5.07;4.67;;;;;;;;;;4877474;29;20541;-93
2022/11/28 01:45:51;;;;;;;5.53;5.00;;;;;;;;;;4866070;29;20413;-94
2022/11/28 01:48:22;;;;;;;5.03;4.70;;;;;;;;;;4879088;29;20448;-94
2022/11/28 01:50:53;;;;;;;6.33;5.93;;;;;;;;;;4885452;29;20421;-93
2022/11/28 01:53:19;;;;;;;4.50;4.30;;;;;;;;;;4879386;29;20545;-93
2022/11/28 01:56:01;;;;;;;5.83;4.60;;;;;;;;;;4871466;29;20845;-93
2022/11/28 01:58:28;;;;;;;5.40;5.00;;;;;;;;;;4881208;29;20981;-95
2022/11/28 02:00:54;;;;;;;4.57;4.40;;;;;;;;;;4881168;29;20510;-94
2022/11/28 02:03:22;;;;;;;3.67;3.53;;;;;;;;;;4884142;29;20447;-94
2022/11/28 02:05:51;;;;;;;7.30;4.80;;;;;;;;;;4881385;29;20510;-94
2022/11/28 02:08:17;;;;;;;5.07;4.77;;;;;;;;;;4865731;29;20450;-95
2022/11/28 02:10:51;;;;;;;4.40;4.30;;;;;;;;;;4865811;29;20501;-94
2022/11/28 02:13:43;;;;;;;6.57;5.50;;;;;;;;;;4884812;29;20469;-94
2022/11/28 02:16:28;;;;;;;6.63;5.00;;;;;;;;;;4888920;29;20414;-93
2022/11/28 02:18:54;;;;;;;5.10;4.70;;;;;;;;;;4893376;29;20434;-94
2022/11/28 02:21:41;;;;;;;3.60;3.40;;;;;;;;;;4880013;29;21416;-94
2022/11/28 02:24:26;;;;;;;4.87;4.57;;;;;;;;;;4892994;29;20506;-94
2022/11/28 02:27:14;;;;;;;5.27;4.80;;;;;;;;;;4886705;29;20453;-94
2022/11/28 02:29:40;;;;;;;5.70;5.40;;;;;;;;;;4900179;29;20460;-94
2022/11/28 02:32:12;;;;;;;5.27;4.87;;;;;;;;;;4874928;29;20449;-93
2022/11/28 02:34:44;;;;;;;5.70;5.20;;;;;;;;;;4880196;29;20440;-93
2022/11/28 02:37:24;;;;;;;5.03;4.73;;;;;;;;;;4886591;29;20452;-94
2022/11/28 02:39:50;;;;;;;5.13;4.73;;;;;;;;;;4889136;29;20461;-93
2022/11/28 02:42:19;;;;;;;4.03;3.63;;;;;;;;;;4875625;29;20461;-93
2022/11/28 02:45:05;;;;;;;4.63;4.20;;;;;;;;;;4878292;29;20446;-94
2022/11/28 02:47:33;;;;;;;5.00;4.80;;;;;;;;;;4866097;29;20441;-93
2022/11/28 02:50:09;;;;;;;5.90;5.50;;;;;;;;;;4868342;29;20445;-95
2022/11/28 02:52:55;;;;;;;4.83;4.60;;;;;;;;;;4860742;29;20448;-93
2022/11/28 02:55:26;;;;;;;5.07;4.67;;;;;;;;;;4864307;29;20498;-94
2022/11/28 02:57:53;;;;;;;4.27;3.97;;;;;;;;;;4876662;29;20461;-93
2022/11/28 03:00:31;;;;;;;6.22;5.03;;;;;;;;;;4877619;29;20418;-94
2022/11/28 03:03:16;;;;;;;5.13;4.93;;;;;;;;;;4880466;29;20200;-94
2022/11/28 03:05:57;;;;;;;5.23;4.93;;;;;;;;;;4866856;29;20414;-94
2022/11/28 03:08:35;;;;;;;5.50;5.10;;;;;;;;;;4879820;29;20499;-92
2022/11/28 03:11:20;;;;;;;5.50;5.05;;;;;;;;;;4892757;29;20489;-93
2022/11/28 03:13:54;;;;;;;3.70;3.50;;;;;;;;;;4898134;29;20209;-93
2022/11/28 03:16:47;;;;;;;6.43;5.93;;;;;;;;;;4898977;29;20445;-94
2022/11/28 03:19:19;;;;;;;6.87;6.37;;;;;;;;;;4895571;29;20454;-93
2022/11/28 03:21:51;;;;;;;5.87;5.13;;;;;;;;;;4891939;29;20488;-92
2022/11/28 03:24:36;;;;;;;6.00;5.53;;;;;;;;;;4890790;29;20513;-93
2022/11/28 03:27:07;;;;;;;4.73;4.33;;;;;;;;;;4879293;29;20444;-93
2022/11/28 03:29:46;;;;;;;5.67;5.17;;;;;;;;;;4877754;29;20470;-94
2022/11/28 03:32:32;;;;;;;4.10;3.73;;;;;;;;;;4879871;29;20520;-94
2022/11/28 03:35:06;;;;;;;6.67;4.70;;;;;;;;;;4844029;29;20637;-93
2022/11/28 03:37:37;;;;;;;4.90;4.60;;;;;;;;;;4881903;29;20470;-93
2022/11/28 03:40:06;;;;;;;4.70;4.50;;;;;;;;;;4846357;29;20427;-93
2022/11/28 03:42:37;;;;;;;6.23;5.73;;;;;;;;;;4878739;29;20534;-93
2022/11/28 03:45:10;;;;;;;5.75;5.25;;;;;;;;;;4877293;29;20439;-94
2022/11/28 03:47:40;;;;;;;5.23;4.80;;;;;;;;;;4883861;29;20189;-94
2022/11/28 03:50:38;;;;;;;4.53;4.20;;;;;;;;;;4920538;29;20509;-93
2022/11/28 04:28:08;;;;;;;5.23;4.93;;;;;;;;;;4897906;29;20449;-90
2022/11/28 04:30:35;;;;;;;4.67;4.47;;;;;;;;;;4886998;29;20522;-93
2022/11/28 04:33:07;;;;;;;5.00;4.60;;;;;;;;;;4895530;29;20506;-94
2022/11/28 04:35:45;;;;;;;4.85;4.65;;;;;;;;;;4889153;29;20202;-94
2022/11/28 04:38:12;;;;;;;5.13;4.72;;;;;;;;;;4885082;29;20217;-92
2022/11/28 04:40:41;;;;;;;7.90;4.20;;;;;;;;;;4878537;29;20645;-95
2022/11/28 04:43:13;;;;;;;5.60;5.30;;;;;;;;;;4886482;29;20638;-95
2022/11/28 04:46:02;;;;;;;5.10;4.80;;;;;;;;;;4891485;29;20493;-94
2022/11/28 04:48:28;;;;;;;4.80;4.50;;;;;;;;;;4865427;29;20467;-94
2022/11/28 04:51:13;;;;;;;4.97;4.72;;;;;;;;;;4893954;29;20450;-95
2022/11/28 04:53:44;;;;;;;5.20;4.90;;;;;;;;;;4895007;29;20201;-95
2022/11/28 04:56:16;;;;;;;4.80;4.43;;;;;;;;;;4884272;29;20958;-92
2022/11/28 04:58:44;;;;;;;4.00;3.90;;;;;;;;;;4880695;29;20446;-95
2022/11/28 05:01:14;;;;;;;6.00;5.60;;;;;;;;;;4865434;29;20473;-96
2022/11/28 05:03:40;;;;;;;5.20;4.90;;;;;;;;;;4883448;29;20440;-95
2022/11/28 05:06:09;;;;;;;5.80;5.40;;;;;;;;;;4856691;29;20203;-94
2022/11/28 05:08:36;;;;;;;5.37;5.10;;;;;;;;;;4863619;29;20439;-93
2022/11/28 05:11:02;;;;;;;4.53;4.32;;;;;;;;;;4864124;29;20439;-94
2022/11/28 05:13:28;;;;;;;5.37;5.17;;;;;;;;;;4882284;29;20661;-96
2022/11/28 05:15:59;;;;;;;5.40;5.00;;;;;;;;;;4858440;29;20459;-92
2022/11/28 05:18:25;;;;;;;5.37;4.97;;;;;;;;;;4891868;29;20177;-94
2022/11/28 05:20:57;;;;;;;5.75;5.25;;;;;;;;;;4881587;29;20468;-94
2022/11/28 05:23:26;;;;;;;4.80;4.40;;;;;;;;;;4891838;29;20195;-92
2022/11/28 05:25:55;;;;;;;4.93;4.63;;;;;;;;;;4876097;29;20808;-94
2022/11/28 05:28:23;;;;;;;5.07;4.88;;;;;;;;;;4888921;29;20422;-93
2022/11/28 05:30:57;;;;;;;5.20;4.80;;;;;;;;;;4888876;29;20211;-90
2022/11/28 05:33:23;;;;;;;6.15;5.65;;;;;;;;;;4892494;29;20224;-93
2022/11/28 05:35:49;;;;;;;5.57;5.17;;;;;;;;;;4903801;29;20866;-93
2022/11/28 05:38:29;;;;;;;5.40;4.80;;;;;;;;;;4906203;29;20537;-93
2022/11/28 05:41:38;;;;;;;6.17;5.77;;;;;;;;;;4876720;29;20477;-93
2022/11/28 05:44:04;;;;;;;5.60;5.23;;;;;;;;;;4821676;29;20421;-92
2022/11/28 05:46:30;;;;;;;5.72;5.32;;;;;;;;;;4880812;29;20450;-93
2022/11/28 05:48:57;;;;;;;5.78;5.47;;;;;;;;;;4899897;29;20676;-94
2022/11/28 05:51:23;;;;;;;6.55;6.05;;;;;;;;;;4905610;29;20256;-94
2022/11/28 05:53:52;;;;;;;5.43;5.23;;;;;;;;;;4905549;29;20197;-93
2022/11/28 05:56:19;;;;;;;5.87;5.47;;;;;;;;;;4904477;29;20508;-93
2022/11/28 05:58:45;;;;;;;6.73;5.10;;;;;;;;;;4904448;29;20402;-94
2022/11/28 06:01:54;;;;;;;8.32;6.07;;;;;;;;;;4889825;29;20465;-93
2022/11/28 06:04:25;;;;;;;7.20;6.50;;;;;;;;;;4867157;29;20202;-92
2022/11/28 06:06:51;;;;;;;6.73;6.10;;;;;;;;;;4208705;29;10000685;-93
2022/11/28 06:09:17;;;;;;;6.20;5.77;;;;;;;;;;4916155;29;20197;-93
2022/11/28 06:11:43;;;;;;;5.40;5.10;;;;;;;;;;4896456;29;20504;-93
2022/11/28 06:14:12;;;;;;;5.53;5.03;;;;;;;;;;4883026;29;20535;-92
2022/11/28 06:16:42;;;;;;;4.78;4.47;;;;;;;;;;4884809;29;20202;-92
2022/11/28 06:19:11;;;;;;;5.97;5.53;;;;;;;;;;4885979;29;20189;-93
2022/11/28 06:21:37;;;;;;;5.88;5.38;;;;;;;;;;4899043;29;20221;-91
2022/11/28 06:24:06;;;;;;;6.60;5.77;;;;;;;;;;4913117;29;20164;-94
2022/11/28 06:26:41;;;;;;;6.63;6.03;;;;;;;;;;4912403;29;20522;-90
2022/11/28 06:29:07;;;;;;;7.90;5.77;;;;;;;;;;4899450;29;20462;-91
2022/11/28 06:31:33;;;;;;;6.40;5.90;;;;;;;;;;4912027;29;20453;-94
2022/11/28 06:33:59;;;;;;;6.50;5.30;;;;;;;;;;4913724;29;20494;-91
2022/11/28 06:36:29;;;;;;;6.70;6.20;;;;;;;;;;4910630;29;20452;-92
2022/11/28 06:38:58;;;;;;;6.73;6.03;;;;;;;;;;4899420;29;20489;-94
2022/11/28 06:41:26;;;;;;;6.00;5.50;;;;;;;;;;4912430;29;20569;-92
2022/11/28 07:10:53;;;;;;;7.03;6.40;;;;;;;;;;5734355;23;20505;-93
2022/11/28 07:13:19;;;;;;;7.07;6.72;;;;;;;;;;4956995;29;20531;-92
2022/11/28 08:27:04;;;;;;;6.50;6.20;;;;;;;;;;4933937;23;20969;-87
2022/11/28 08:29:50;;;;;;;5.50;5.30;;;;;;;;;;4945584;29;20489;-86
2022/11/28 08:32:17;;;;;;;6.50;6.10;;;;;;;;;;4912322;29;20457;-87
2022/11/28 08:34:43;;;;;;;7.60;6.90;;;;;;;;;;4924674;29;21037;-86
2022/11/28 08:37:09;;;;;;;6.50;6.13;;;;;;;;;;4913564;29;20505;-87
2022/11/28 08:39:35;;;;;;;8.13;6.87;;;;;;;;;;4919615;29;20533;-87
2022/11/28 08:42:02;;;;;;;6.10;5.57;;;;;;;;;;4929790;29;21124;-87
2022/11/28 08:44:28;;;;;;;6.10;5.70;;;;;;;;;;4924822;29;20430;-86
2022/11/28 08:46:54;;;;;;;5.77;5.37;;;;;;;;;;4920188;29;20938;-87
2022/11/28 08:49:20;;;;;;;6.13;5.63;;;;;;;;;;4940260;28;20482;-88
2022/11/28 08:51:46;;;;;;;7.83;7.13;;;;;;;;;;4923518;29;20431;-89
2022/11/28 08:54:12;;;;;;;7.30;6.60;;;;;;;;;;4565628;29;10000538;-88
2022/11/28 08:56:38;;;;;;;6.97;6.27;;;;;;;;;;4912564;29;20298;-87
2022/11/28 08:59:05;;;;;;;5.43;5.23;;;;;;;;;;4919069;29;20453;-88
2022/11/28 09:01:38;;;;;;;6.03;5.50;;;;;;;;;;4902503;29;20530;-89
2022/11/28 09:04:06;;;;;;;6.13;5.47;;;;;;;;;;4902695;29;20460;-87
2022/11/28 09:06:32;;;;;;;5.70;5.30;;;;;;;;;;4918925;29;20919;-87
2022/11/28 09:08:58;;;;;;;5.93;5.60;;;;;;;;;;4923367;29;20432;-87
2022/11/28 09:11:24;;;;;;;6.63;6.10;;;;;;;;;;4916670;29;20439;-88
2022/11/28 09:13:50;;;;;;;6.00;5.53;;;;;;;;;;4916206;29;20439;-88
2022/11/28 09:16:16;;;;;;;6.70;6.03;;;;;;;;;;4913575;29;21001;-85
2022/11/28 09:18:42;;;;;;;6.70;6.00;;;;;;;;;;4914214;29;20514;-86
2022/11/28 09:21:10;;;;;;;6.80;6.13;;;;;;;;;;4929067;29;20562;-86
2022/11/28 09:23:36;;;;;;;6.70;6.20;;;;;;;;;;4899783;29;20947;-88
2022/11/28 09:26:07;;;;;;;6.30;5.90;;;;;;;;;;4913351;29;20538;-87
2022/11/28 09:28:33;;;;;;;6.47;6.00;;;;;;;;;;4916093;29;20466;-85
2022/11/28 09:31:01;;;;;;;6.53;5.93;;;;;;;;;;4911169;29;20471;-86
2022/11/28 09:33:29;;;;;;;5.30;4.90;;;;;;;;;;4929328;29;20476;-86
2022/11/28 09:35:57;;;;;;;6.93;6.20;;;;;;;;;;4926265;29;20578;-86
2022/11/28 09:38:24;;;;;;;6.73;6.23;;;;;;;;;;4938768;29;20458;-85
2022/11/28 09:40:57;;;;;;;5.67;5.23;;;;;;;;;;4916931;29;20561;-87
2022/11/28 09:43:37;;;;;;;7.13;6.30;;;;;;;;;;4913921;29;20431;-87
2022/11/28 09:46:05;;;;;;;6.40;5.17;;;;;;;;;;4918002;29;20466;-87
2022/11/28 09:48:39;;;;;;;6.47;5.97;;;;;;;;;;4943345;29;20442;-87
2022/11/28 09:51:16;;;;;;;6.60;6.10;;;;;;;;;;4922480;29;20426;-86
2022/11/28 09:53:47;;;;;;;6.53;6.10;;;;;;;;;;4933667;29;20500;-88
2022/11/28 09:56:18;;;;;;;7.37;6.80;;;;;;;;;;4566614;29;10000524;-88
2022/11/28 09:59:01;;;;;;;7.53;6.90;;;;;;;;;;4913399;29;20681;-88
2022/11/28 10:01:27;;;;;;;8.30;6.23;;;;;;;;;;4911680;29;20472;-87
2022/11/28 10:04:03;;;;;;;7.07;6.47;;;;;;;;;;4927862;29;20459;-89
2022/11/28 10:06:54;;;;;;;5.33;4.87;;;;;;;;;;4914314;29;20425;-88
2022/11/28 10:09:30;;;;;;;11.33;7.10;;;;;;;;;;4920847;29;20474;-85
2022/11/28 10:12:02;;;;;;;6.07;5.50;;;;;;;;;;4907985;29;20571;-88
2022/11/28 10:14:47;;;;;;;6.07;5.53;;;;;;;;;;4916248;29;20477;-86
2022/11/28 10:17:38;;;;;;;6.20;5.77;;;;;;;;;;4915472;29;20427;-87
2022/11/28 10:20:27;;;;;;;6.63;6.13;;;;;;;;;;4931333;29;20442;-87
2022/11/28 10:22:56;;;;;;;6.97;6.47;;;;;;;;;;4914207;29;20494;-89
2022/11/28 10:25:27;;;;;;;7.20;6.60;;;;;;;;;;4924950;29;20804;-88
2022/11/28 10:27:54;;;;;;;7.03;5.93;;;;;;;;;;4910702;29;20951;-87
2022/11/28 10:30:22;;;;;;;7.00;6.35;;;;;;;;;;4925216;29;20488;-87
2022/11/28 10:32:54;;;;;;;5.80;5.30;;;;;;;;;;4910855;29;20211;-88
2022/11/28 10:35:20;;;;;;;6.97;6.57;;;;;;;;;;4910629;29;20436;-86
2022/11/28 10:38:02;;;;;;;11.10;5.80;;;;;;;;;;4923141;29;20574;-86
2022/11/28 10:40:31;;;;;;;8.10;7.30;;;;;;;;;;4927706;29;20434;-89
2022/11/28 10:43:16;;;;;;;7.77;6.77;;;;;;;;;;4919901;29;21309;-88
2022/11/28 10:46:08;;;;;;;10.43;6.33;;;;;;;;;;4926287;29;20410;-87
2022/11/28 10:48:54;;;;;;;7.93;6.00;;;;;;;;;;4918679;29;20527;-86
2022/11/28 10:51:44;;;;;;;7.17;6.60;;;;;;;;;;4944136;29;20435;-85
2022/11/28 10:54:45;;;;;;;5.57;5.20;;;;;;;;;;4935155;29;20406;-87
2022/11/28 10:57:22;;;;;;;8.33;6.83;;;;;;;;;;4923331;29;20431;-87
2022/11/28 10:59:57;;;;;;;7.27;6.77;;;;;;;;;;4933407;29;20454;-87
2022/11/28 11:02:56;;;;;;;7.20;6.60;;;;;;;;;;4917863;29;20473;-87
2022/11/28 11:05:28;;;;;;;7.37;6.77;;;;;;;;;;4899734;29;20861;-88
2022/11/28 11:08:12;;;;;;;9.73;7.50;;;;;;;;;;4914314;29;20518;-88
2022/11/28 11:10:44;;;;;;;7.27;6.27;;;;;;;;;;4917989;29;20431;-86
2022/11/28 11:13:35;;;;;;;16.10;8.40;;;;;;;;;;4910736;29;20438;-86
2022/11/28 11:16:11;;;;;;;8.43;6.80;;;;;;;;;;4879648;29;20459;-87
2022/11/28 11:18:42;;;;;;;8.65;7.85;;;;;;;;;;4931441;29;20429;-87
2022/11/28 11:21:11;;;;;;;8.33;7.63;;;;;;;;;;4917059;29;20214;-87
2022/11/28 11:23:47;;;;;;;8.87;7.80;;;;;;;;;;4927485;29;20438;-87
2022/11/28 11:26:21;;;;;;;10.67;6.83;;;;;;;;;;4930953;29;20443;-87
2022/11/28 11:31:43;;;;;;;8.37;7.70;;;;;;;;;;4931161;29;20450;-86
2022/11/28 11:34:15;;;;;;;7.43;6.83;;;;;;;;;;4916536;29;20471;-86
2022/11/28 11:36:44;;;;;;;15.13;7.03;;;;;;;;;;4910332;29;20454;-87
2022/11/28 11:39:10;;;;;;;7.97;7.23;;;;;;;;;;4913451;29;20436;-85
2022/11/28 11:41:47;;;;;;;9.10;8.27;;;;;;;;;;4923688;29;20516;-87
2022/11/28 11:44:13;;;;;;;7.10;6.60;;;;;;;;;;4925641;29;20451;-89
2022/11/28 11:47:04;;;;;;;7.80;7.20;;;;;;;;;;4934362;29;20498;-92
2022/11/28 11:49:37;;;;;;;7.67;7.07;;;;;;;;;;4930982;28;20435;-92
2022/11/28 11:52:03;;;;;;;8.37;7.30;;;;;;;;;;4911467;29;20589;-85
2022/11/28 11:54:29;;;;;;;8.70;8.00;;;;;;;;;;4913553;29;20442;-87
2022/11/28 11:57:08;;;;;;;6.47;6.07;;;;;;;;;;4917472;29;20522;-86
2022/11/28 11:59:41;;;;;;;7.97;7.17;;;;;;;;;;4925900;29;20415;-87
2022/11/28 12:02:26;;;;;;;7.80;7.13;;;;;;;;;;4911341;29;20497;-87
2022/11/28 12:05:03;;;;;;;7.75;7.05;;;;;;;;;;4915594;29;20435;-87
2022/11/28 12:07:36;;;;;;;8.33;7.37;;;;;;;;;;4933618;29;20199;-87
2022/11/28 12:10:04;;;;;;;10.25;8.80;;;;;;;;;;4940599;29;20410;-87
2022/11/28 12:12:30;;;;;;;8.17;7.40;;;;;;;;;;4911061;29;20199;-85
2022/11/28 12:14:57;;;;;;;8.83;7.93;;;;;;;;;;4942473;29;20411;-88
2022/11/28 12:17:35;;;;;;;7.90;7.30;;;;;;;;;;4940126;29;20439;-88
2022/11/28 12:20:08;;;;;;;9.40;8.47;;;;;;;;;;4930655;29;21004;-85
2022/11/28 12:22:43;;;;;;;8.90;8.13;;;;;;;;;;4938784;29;20788;-88
2022/11/28 12:25:28;;;;;;;7.37;6.83;;;;;;;;;;4945539;29;20578;-86
2022/11/28 12:28:01;;;;;;;10.40;9.33;;;;;;;;;;4915424;29;20510;-86
2022/11/28 12:30:27;;;;;;;12.57;8.10;;;;;;;;;;4915225;29;20447;-88
2022/11/28 12:33:23;;;;;;;10.83;8.63;;;;;;;;;;4912426;29;20791;-84
2022/11/28 12:36:04;;;;;;;7.18;6.68;;;;;;;;;;4910571;29;20714;-86
2022/11/28 12:38:38;;;;;;;9.80;8.70;;;;;;;;;;4935289;29;20672;-86
2022/11/28 12:41:24;;;;;;;9.10;8.17;;;;;;;;;;4937564;29;21004;-86
2022/11/28 12:43:58;;;;;;;9.70;8.27;;;;;;;;;;4931396;29;20723;-85
2022/11/28 12:46:30;;;;;;;8.70;7.93;;;;;;;;;;4898668;29;20440;-85
2022/11/28 12:49:08;;;;;;;8.90;8.03;;;;;;;;;;4915302;29;20447;-85
2022/11/28 12:51:53;;;;;;;8.73;7.70;;;;;;;;;;4927189;29;20793;-86
2022/11/28 12:54:36;;;;;;;8.73;7.93;;;;;;;;;;4926850;29;20414;-88
2022/11/28 13:23:03;;;;;;;9.10;8.20;;;;;;;;;;5513187;23;20557;-88
2022/11/28 13:25:29;;;;;;;7.77;7.17;;;;;;;;;;4939756;29;20442;-88
2022/11/28 13:28:35;;;;;;;;;;;;;;;;;;;;;
2022/11/28 15:22:50;;;;;;;8.53;7.90;;;;;;;;;;4916650;29;21100;-89
2022/11/28 15:25:21;;;;;;;7.47;6.87;;;;;;;;;;4928192;29;20436;-84
2022/11/28 15:27:47;;;;;;;8.47;7.77;;;;;;;;;;4927626;29;20440;-86
2022/11/28 15:30:26;;;;;;;7.50;7.00;;;;;;;;;;4924333;29;20437;-90
2022/11/28 15:33:06;;;;;;;9.13;8.43;;;;;;;;;;4912893;29;20843;-89
2022/11/28 15:35:32;;;;;;;8.90;7.87;;;;;;;;;;4911604;29;21075;-89
2022/11/28 15:38:00;;;;;;;8.07;7.43;;;;;;;;;;4572550;29;10000374;-84
2022/11/28 15:43:31;;;;;;;9.20;7.47;;;;;;;;;;4888011;29;20511;-87
2022/11/28 15:45:58;;;;;;;8.03;7.33;;;;;;;;;;4907393;29;20445;-84
2022/11/28 16:28:45;;;;;;;10.60;9.60;;;;;;;;;;5345319;23;20559;-90
2022/11/28 16:31:31;;;;;;;12.53;10.90;;;;;;;;;;4893079;29;20453;-88
2022/11/28 16:46:58;;;;;;;11.10;10.17;;;;;;;;;;4954049;23;20545;-91
2022/11/28 16:50:02;;;;;;;12.57;11.23;;;;;;;;;;4599141;29;9999792;-91
2022/11/28 16:53:03;;;;;;;;;;;;;;;;;;;;;
